Ocean Shores, WA

12:56 PM PDT on March 27, 2015 (GMT -0700)
Bell Canal | | Change Station
CLOSE
Current Station
Personal Weather Station
Location: Ocean Shores, WA
Elevation: 16 ft
Nearby Weather Stations

Elev 16 ft 46.96 °N, 124.16 °W | Updated 12 minutes ago

Overcast
Overcast
54.7 °F
Feels Like 54.7 °F
N
5.3
Wind Variable Wind from SW

Today
High -- | Low -- °F
--% Chance of Precip.
Yesterday
High -- | Low -- °F
Precip. -- in
7:05 AM 7:38 PM
First Quarter, 55% visible
Pressure 30.07 in
Visibility 7.0 miles
Clouds Overcast 1100 ft
Dew Point 52 °F
Humidity 92%
Rainfall 0.00 in
Snow Depth Not available.
UV 2 out of 12
Pollen 8.80 out of 12
Air Quality Not available.
Flu Activity Not available.
METAR KHQM 271953Z AUTO 17007KT 7SM OVC011 13/11 A3006 RMK AO2 SLP182 T01280111

More Conditions Fewer Conditions

Pressure 30.07 in
Visibility 7.0 miles
Clouds Overcast 1100 ft
Dew Point 52 °F
Humidity 92%
Rainfall 0.00 in
Snow Depth Not available.
UV 2 out of 12
Pollen 8.80 out of 12
Air Quality Not available.
Flu Activity Not available.
METAR KHQM 271953Z AUTO 17007KT 7SM OVC011 13/11 A3006 RMK AO2 SLP182 T01280111

More Conditions Fewer Conditions

10-Day Weather Forecast

Almanac

Astronomy

Mar. 27, 2015 Rise Set
Actual Time
Civil Twilight
Nautical Twilight
Astronomical Twilight
Moon
Length of Visible Light
Length of Day
Tomorrow will be .
, % of the Moon is Illuminated

Today's Extremes

State Highs State Lows

Community

WunderPhotos

Upload Photos

1,808,799 photos uploaded!

WunderBlogs® & News

Nearby

Air Quality

  Air Quality AQ Index Pollutant
Not available.

Snow Depth

Station Depth Elevation

Earthquake Activity

City Distance Mag. Time & Date
Minimum magnitude displayed is 2.5.

Coastal Water Temperatures

Place Temperature

Stations

Nearby Weather Stations

Station Location Temp. Windchill Dew Point Humidity Wind Precip. Elev Updated Type